PROFILE

 METAR AND TAF INFORMATION
ADDS - METARS form results

(1213 UTC 26 March 2019)
http://aviationweather.gov/metar/data/
 
EGLC 261150Z AUTO 31007KT 270V010 9999 FEW036 11/02 Q1034
EGLC 261120Z AUTO 30007KT 270V350 9999 NCD 10/02 Q1034
TAF EGLC 261058Z 2612/2621 33010KT 9999 FEW040 BECMG 2618/2621 VRB03KT 

 AIRPORT MAP

 RUNWAY INFORMATION
Runway 10 Runway length 4948 ft Runway width 98 ft
Runway elevation 16 ft Runway displaced threshold 358 ft Runway heading 93
Runway 28 Runway length 4948 ft Runway width 98 ft
Runway elevation 19 ft Runway displaced threshold 211 ft Runway heading 273

 AIRPORT FREQUENCIES
Type APP Name APP Frequency 132.7 MHZ
Type ATIS Name ATIS Frequency 136.35 MHZ
Type GND Name GND Frequency 121.825 MHZ
Type TWR Name TWR Frequency 118.075 MHZ

 AIRPORT NEAR NAVIGATION AIDS
Type NDB Name City Frequency 322 KHZ